Time;durP1;ratioP1;P1;durP2;ratioP2;P2;SDS_P1;SDS_P2;PMS_P1;PMS_P2;Temp;Humidity;BMP_temperature;BMP_pressure;BME280_temperature;BME280_humidity;BME280_pressure;Samples;Min_cycle;Max_cycle;Signal;HPM_P1;HPM_P2
2023/06/09 00:00:47;;;;;;;5.18;3.13;;;;;;;22.10;100.00;100844.88;5158208;27;20099;-75
2023/06/09 00:03:33;;;;;;;7.53;3.35;;;;;;;22.32;100.00;100846.09;5158573;27;20031;-76
2023/06/09 00:06:22;;;;;;;4.47;3.22;;;;;;;22.18;100.00;100846.06;5158245;27;20042;-76
2023/06/09 00:09:08;;;;;;;5.28;3.33;;;;;;;22.02;100.00;100848.00;5157613;27;20033;-76
2023/06/09 00:11:54;;;;;;;6.13;3.25;;;;;;;22.09;100.00;100836.00;5158213;27;20031;-76
2023/06/09 00:14:41;;;;;;;5.82;3.30;;;;;;;21.95;100.00;100833.31;5157748;27;20105;-76
2023/06/09 00:17:27;;;;;;;4.43;3.20;;;;;;;22.13;100.00;100833.97;5158818;27;20045;-76
2023/06/09 00:20:14;;;;;;;11.52;3.50;;;;;;;22.22;100.00;100828.09;5142059;27;20103;-76
2023/06/09 00:23:00;;;;;;;6.63;3.30;;;;;;;22.21;100.00;100819.19;5157448;27;20031;-76
2023/06/09 00:25:46;;;;;;;7.13;3.33;;;;;;;21.97;100.00;100823.41;5157847;27;20109;-75
2023/06/09 00:28:32;;;;;;;4.95;3.22;;;;;;;21.96;100.00;100812.84;5157714;27;20100;-77
2023/06/09 00:31:17;;;;;;;6.40;3.42;;;;;;;21.87;100.00;100811.59;5157547;27;20058;-76
2023/06/09 00:34:03;;;;;;;7.05;3.50;;;;;;;21.98;100.00;100817.13;5158188;27;20033;-76
2023/06/09 00:36:49;;;;;;;8.13;3.40;;;;;;;21.99;100.00;100818.00;5157780;27;20026;-75
2023/06/09 00:39:35;;;;;;;5.07;3.58;;;;;;;22.07;100.00;100807.69;5157517;27;20094;-75
2023/06/09 00:42:21;;;;;;;9.73;4.20;;;;;;;21.89;100.00;100798.16;5157580;27;20060;-76
2023/06/09 00:45:07;;;;;;;6.18;3.90;;;;;;;21.88;100.00;100804.44;5157722;27;20022;-76
2023/06/09 00:47:54;;;;;;;4.28;3.53;;;;;;;21.84;100.00;100803.78;5157740;27;20022;-75
2023/06/09 00:50:40;;;;;;;4.55;3.60;;;;;;;21.61;100.00;100820.31;5157065;27;20030;-75
2023/06/09 00:53:27;;;;;;;5.75;3.65;;;;;;;21.72;100.00;100820.56;5157552;27;20030;-74
2023/06/09 00:56:14;;;;;;;6.18;3.80;;;;;;;21.50;100.00;100824.59;5157555;27;20455;-75
2023/06/09 00:59:01;;;;;;;7.72;3.67;;;;;;;21.45;100.00;100822.19;5141904;27;20484;-75
2023/06/09 01:01:47;;;;;;;4.13;3.60;;;;;;;21.66;100.00;100812.06;5157011;27;20034;-76
2023/06/09 01:04:34;;;;;;;5.03;3.80;;;;;;;21.38;100.00;100820.84;5156771;27;20131;-76
2023/06/09 01:07:46;;;;;;;7.22;3.70;;;;;;;20.97;100.00;100824.28;5142190;27;20451;-76
2023/06/09 01:10:43;;;;;;;5.38;3.80;;;;;;;21.05;100.00;100822.84;5142011;27;20046;-76
2023/06/09 01:14:24;;;;;;;8.05;3.70;;;;;;;20.91;100.00;100824.56;5142892;27;20030;-76
2023/06/09 01:17:18;;;;;;;6.03;3.85;;;;;;;20.58;100.00;100834.50;5096811;27;20087;-77
2023/06/09 01:20:05;;;;;;;4.78;3.38;;;;;;;20.78;100.00;100832.41;5140864;27;20515;-76
2023/06/09 01:23:08;;;;;;;4.53;3.50;;;;;;;20.60;100.00;100832.59;5157039;27;20035;-76
2023/06/09 01:25:55;;;;;;;5.47;3.70;;;;;;;20.66;100.00;100824.28;5155789;27;20544;-76
2023/06/09 01:28:43;;;;;;;5.03;3.67;;;;;;;20.62;100.00;100826.25;5156152;27;20031;-76
2023/06/09 01:31:29;;;;;;;11.55;4.35;;;;;;;20.39;100.00;100823.16;5141224;27;20037;-76
2023/06/09 01:34:15;;;;;;;8.57;4.13;;;;;;;20.72;100.00;100824.78;5156181;27;20423;-76
2023/06/09 01:37:02;;;;;;;26.80;4.80;;;;;;;20.52;100.00;100821.53;5156083;27;20126;-76
2023/06/09 01:39:50;;;;;;;7.38;3.85;;;;;;;20.29;100.00;100820.16;5141066;27;20027;-76
2023/06/09 01:42:35;;;;;;;8.25;3.90;;;;;;;20.46;100.00;100830.75;5141841;27;20018;-76
2023/06/09 01:45:21;;;;;;;6.20;4.38;;;;;;;20.54;100.00;100825.81;5140196;27;20459;-75
2023/06/09 01:48:22;;;;;;;5.07;3.75;;;;;;;20.27;100.00;100823.84;5155762;27;20357;-76
2023/06/09 01:51:24;;;;;;;4.80;3.72;;;;;;;20.41;100.00;100818.63;5155833;27;20436;-76
2023/06/09 01:54:12;;;;;;;4.93;3.80;;;;;;;20.50;100.00;100829.63;5155826;27;20340;-76
2023/06/09 01:57:20;;;;;;;5.70;3.75;;;;;;;20.31;100.00;100818.28;5155156;27;20022;-76
2023/06/09 02:00:07;;;;;;;5.78;3.85;;;;;;;20.20;100.00;100822.47;5154567;27;20022;-76
2023/06/09 02:02:57;;;;;;;5.88;4.15;;;;;;;20.31;100.00;100820.94;5154909;27;20057;-76
2023/06/09 02:05:45;;;;;;;12.20;4.47;;;;;;;20.36;100.00;100818.88;5155223;27;20030;-76
2023/06/09 02:08:31;;;;;;;9.20;4.28;;;;;;;20.19;100.00;100826.06;5154830;27;20086;-76
2023/06/09 02:11:17;;;;;;;6.35;3.80;;;;;;;20.21;100.00;100825.03;5154910;27;20042;-76
2023/06/09 02:14:03;;;;;;;6.93;4.18;;;;;;;19.94;100.00;100836.31;5154782;27;20061;-76
2023/06/09 02:16:53;;;;;;;6.60;4.22;;;;;;;19.95;100.00;100833.56;5140235;27;20037;-77
2023/06/09 02:19:39;;;;;;;8.27;4.22;;;;;;;20.00;100.00;100830.63;5153717;27;20471;-77
2023/06/09 02:22:26;;;;;;;7.65;4.22;;;;;;;19.95;100.00;100838.88;5154955;27;20470;-76
2023/06/09 02:25:12;;;;;;;4.32;3.78;;;;;;;20.03;100.00;100841.13;5155627;27;20027;-76
2023/06/09 02:28:00;;;;;;;7.93;4.50;;;;;;;20.00;100.00;100838.63;5155858;27;20027;-76
2023/06/09 02:30:46;;;;;;;8.07;4.53;;;;;;;19.99;100.00;100836.91;5154484;27;20428;-76
2023/06/09 02:33:31;;;;;;;6.07;4.30;;;;;;;19.62;100.00;100853.97;5155683;27;20155;-76
2023/06/09 02:36:17;;;;;;;9.68;4.40;;;;;;;19.72;100.00;100857.00;5155262;27;20030;-76
2023/06/09 02:39:03;;;;;;;8.23;4.22;;;;;;;19.79;100.00;100863.69;5126756;27;20110;-77
2023/06/09 02:41:49;;;;;;;6.40;4.65;;;;;;;19.82;100.00;100864.41;5155338;27;20023;-77
2023/06/09 02:44:38;;;;;;;8.20;5.07;;;;;;;19.78;100.00;100860.22;5155631;27;20103;-76
2023/06/09 02:47:24;;;;;;;7.25;4.90;;;;;;;19.81;100.00;100860.00;5155484;27;20026;-76
2023/06/09 02:50:10;;;;;;;7.03;4.30;;;;;;;19.74;100.00;100861.31;5155382;27;20455;-75
2023/06/09 02:52:56;;;;;;;9.05;5.20;;;;;;;19.32;100.00;100862.66;5158764;27;20526;-76
2023/06/09 02:55:44;;;;;;;8.75;5.00;;;;;;;19.24;100.00;100867.50;5155584;27;20106;-77
2023/06/09 02:58:30;;;;;;;9.82;4.97;;;;;;;19.20;100.00;100872.06;5155481;27;20023;-77
2023/06/09 03:01:19;;;;;;;5.97;4.70;;;;;;;19.33;100.00;100869.69;5155462;27;20392;-75
2023/06/09 03:04:08;;;;;;;9.10;5.72;;;;;;;19.13;100.00;100862.69;5155012;27;20094;-76
2023/06/09 03:06:54;;;;;;;9.00;5.10;;;;;;;19.21;100.00;100868.50;5155512;27;20045;-77
2023/06/09 03:09:40;;;;;;;7.00;5.35;;;;;;;19.26;100.00;100877.13;5154458;27;20026;-76
2023/06/09 03:12:26;;;;;;;9.68;5.50;;;;;;;18.98;100.00;100871.44;5155065;27;20022;-76
2023/06/09 03:15:11;;;;;;;10.43;5.70;;;;;;;19.11;100.00;100877.84;5140091;27;20026;-76
2023/06/09 03:17:57;;;;;;;8.43;6.20;;;;;;;19.51;100.00;100872.25;5155342;27;20037;-75
2023/06/09 03:20:43;;;;;;;10.23;6.53;;;;;;;19.51;100.00;100879.38;5163546;27;20035;-76
2023/06/09 03:23:30;;;;;;;9.10;6.63;;;;;;;19.60;100.00;100878.91;5160140;27;20034;-76
2023/06/09 03:26:17;;;;;;;9.55;6.85;;;;;;;19.34;100.00;100882.03;5145325;27;20043;-77
2023/06/09 03:29:03;;;;;;;9.48;6.82;;;;;;;19.53;100.00;100885.47;5154983;27;20076;-76
2023/06/09 03:31:49;;;;;;;8.65;6.13;;;;;;;19.69;100.00;100881.94;5157257;27;20095;-76
2023/06/09 03:34:35;;;;;;;9.18;6.90;;;;;;;19.64;100.00;100883.97;5144304;27;20038;-75
2023/06/09 03:37:21;;;;;;;8.70;6.15;;;;;;;19.53;100.00;100882.81;5158901;27;20068;-76
2023/06/09 03:40:08;;;;;;;10.07;6.28;;;;;;;19.45;100.00;100888.50;5159700;27;20091;-75
2023/06/09 03:42:53;;;;;;;11.35;6.28;;;;;;;19.69;100.00;100889.06;5158652;27;20065;-77
2023/06/09 03:45:39;;;;;;;10.43;5.97;;;;;;;19.81;100.00;100889.28;5158268;27;20030;-75
2023/06/09 03:48:25;;;;;;;13.07;5.72;;;;;;;19.77;100.00;100893.03;5157406;27;20034;-75
2023/06/09 03:51:11;;;;;;;10.25;5.43;;;;;;;19.48;100.00;100891.03;5157900;27;20107;-76
2023/06/09 03:53:57;;;;;;;13.10;5.60;;;;;;;19.94;100.00;100902.78;5158332;27;20023;-76
2023/06/09 03:56:42;;;;;;;11.68;5.50;;;;;;;19.80;100.00;100903.50;5143771;27;20034;-74
2023/06/09 03:59:28;;;;;;;13.45;5.90;;;;;;;19.79;100.00;100906.25;5143815;27;20092;-74
2023/06/09 04:02:14;;;;;;;12.48;5.68;;;;;;;20.00;100.00;100903.31;5143834;27;20136;-74
2023/06/09 04:04:59;;;;;;;9.88;5.97;;;;;;;20.12;100.00;100910.69;5158259;27;20516;-74
2023/06/09 04:07:45;;;;;;;10.68;5.95;;;;;;;20.19;100.00;100897.91;5143595;27;20031;-74
2023/06/09 04:10:31;;;;;;;9.90;5.95;;;;;;;20.03;100.00;100907.63;5143442;27;20049;-75
2023/06/09 04:13:16;;;;;;;14.13;5.65;;;;;;;20.32;100.00;100907.81;5158564;27;20031;-75
2023/06/09 04:16:02;;;;;;;15.20;6.25;;;;;;;20.17;100.00;100905.13;5157947;27;20041;-73
2023/06/09 04:18:48;;;;;;;11.32;5.65;;;;;;;20.22;100.00;100903.06;5157816;27;20048;-75
2023/06/09 04:21:35;;;;;;;12.00;5.68;;;;;;;20.52;100.00;100904.91;5157973;27;20030;-74
2023/06/09 04:24:21;;;;;;;11.93;5.95;;;;;;;20.12;100.00;100905.38;5158756;27;20037;-75
2023/06/09 04:27:07;;;;;;;12.05;6.28;;;;;;;20.21;100.00;100904.88;5142519;27;20019;-74
2023/06/09 04:29:53;;;;;;;8.73;5.93;;;;;;;20.41;100.00;100909.13;5157845;27;20511;-76
2023/06/09 04:32:39;;;;;;;10.90;6.35;;;;;;;20.15;100.00;100921.16;5142729;27;20056;-76
2023/06/09 04:35:25;;;;;;;15.82;6.70;;;;;;;20.09;100.00;100920.59;5143102;27;20035;-75
2023/06/09 04:38:10;;;;;;;20.98;6.38;;;;;;;20.19;100.00;100927.19;5157903;27;20050;-75
2023/06/09 04:40:57;;;;;;;11.60;7.07;;;;;;;20.29;100.00;100929.25;5142460;27;20026;-76
2023/06/09 04:43:43;;;;;;;12.35;6.70;;;;;;;20.56;100.00;100938.41;5157904;27;20088;-75
2023/06/09 04:46:37;;;;;;;9.38;7.00;;;;;;;20.54;100.00;100934.97;5143119;27;20088;-76
2023/06/09 04:49:23;;;;;;;17.13;7.70;;;;;;;20.56;100.00;100933.09;5142628;27;20010;-76
2023/06/09 04:52:10;;;;;;;13.90;6.80;;;;;;;20.48;100.00;100923.78;5157980;27;20175;-76
2023/06/09 04:54:57;;;;;;;11.07;6.47;;;;;;;20.78;100.00;100933.59;5157448;27;20034;-75
2023/06/09 04:57:43;;;;;;;13.38;6.65;;;;;;;20.73;100.00;100929.50;5142469;27;20045;-74
2023/06/09 05:00:29;;;;;;;13.40;6.43;;;;;;;20.89;100.00;100922.38;5157398;27;20410;-76
2023/06/09 05:03:17;;;;;;;11.57;5.65;;;;;;;20.46;100.00;100921.25;5157318;27;20455;-76
2023/06/09 05:06:02;;;;;;;10.70;5.28;;;;;;;20.76;100.00;100922.19;5157567;27;20026;-76
2023/06/09 05:08:50;;;;;;;11.40;5.50;;;;;;;21.07;100.00;100926.69;5157172;27;20352;-76
2023/06/09 05:11:36;;;;;;;8.60;5.70;;;;;;;20.78;100.00;100932.75;5142475;27;20164;-75
2023/06/09 05:14:22;;;;;;;11.57;6.03;;;;;;;21.40;100.00;100932.72;5157485;27;20026;-76
2023/06/09 05:17:08;;;;;;;10.60;5.38;;;;;;;21.21;100.00;100927.59;5156956;27;20041;-76
2023/06/09 05:19:53;;;;;;;11.85;5.93;;;;;;;21.48;100.00;100928.66;5141156;27;20345;-75
2023/06/09 05:22:39;;;;;;;12.35;5.43;;;;;;;21.24;100.00;100929.22;5157168;27;20039;-76
2023/06/09 05:25:25;;;;;;;12.52;6.15;;;;;;;21.03;100.00;100920.69;5142089;27;20064;-75
2023/06/09 05:28:11;;;;;;;8.95;6.07;;;;;;;21.28;100.00;100928.97;5156173;27;20367;-76
2023/06/09 05:30:56;;;;;;;13.20;6.32;;;;;;;21.66;100.00;100934.72;5156743;27;20015;-76
2023/06/09 05:33:43;;;;;;;13.82;6.07;;;;;;;21.68;100.00;100925.69;5156438;27;20037;-76
2023/06/09 05:36:29;;;;;;;14.45;5.90;;;;;;;21.85;100.00;100930.00;5155620;27;20479;-76
2023/06/09 05:39:15;;;;;;;11.13;5.70;;;;;;;21.61;100.00;100929.66;5156121;27;20046;-76
2023/06/09 05:42:01;;;;;;;10.85;5.88;;;;;;;21.95;100.00;100923.19;5156658;27;20428;-76
2023/06/09 05:44:47;;;;;;;11.75;4.90;;;;;;;22.12;100.00;100920.34;5155004;27;20110;-76
2023/06/09 05:47:33;;;;;;;11.65;5.53;;;;;;;22.19;100.00;100921.69;5139807;27;20034;-76
2023/06/09 05:50:19;;;;;;;14.50;5.45;;;;;;;22.36;100.00;100914.34;5156460;27;20034;-77
2023/06/09 05:53:05;;;;;;;9.50;5.15;;;;;;;22.42;100.00;100915.78;5155071;27;20131;-76
2023/06/09 05:55:53;;;;;;;8.95;4.97;;;;;;;22.93;100.00;100916.00;5156153;27;20030;-77
2023/06/09 05:58:39;;;;;;;14.13;5.45;;;;;;;22.79;100.00;100923.19;5155087;27;20026;-76
2023/06/09 06:01:24;;;;;;;11.60;5.03;;;;;;;22.96;100.00;100921.16;5155705;27;20034;-76
2023/06/09 06:04:10;;;;;;;11.80;5.07;;;;;;;23.06;100.00;100924.06;5156067;27;20110;-77
2023/06/09 06:06:56;;;;;;;17.85;5.80;;;;;;;23.22;100.00;100925.66;5155612;27;20340;-76
2023/06/09 06:09:42;;;;;;;12.85;5.53;;;;;;;22.81;100.00;100919.47;5155258;27;20341;-76
2023/06/09 06:12:27;;;;;;;12.77;5.30;;;;;;;23.13;100.00;100923.56;5154751;27;20023;-77
2023/06/09 06:15:13;;;;;;;9.38;5.03;;;;;;;23.35;100.00;100923.88;5156247;27;20037;-76
2023/06/09 06:17:59;;;;;;;10.73;5.32;;;;;;;23.38;100.00;100926.34;5155809;27;20022;-75
2023/06/09 06:20:44;;;;;;;12.32;5.22;;;;;;;23.11;100.00;100927.31;5154773;27;20042;-76
2023/06/09 06:23:31;;;;;;;8.55;4.80;;;;;;;23.14;100.00;100933.31;5155376;27;20041;-76
2023/06/09 06:26:17;;;;;;;8.82;4.82;;;;;;;23.24;100.00;100929.06;5154136;27;20038;-76
2023/06/09 06:29:03;;;;;;;8.90;4.63;;;;;;;23.46;100.00;100928.50;5154633;27;20504;-76
2023/06/09 06:31:48;;;;;;;8.25;4.85;;;;;;;23.71;100.00;100922.38;5154502;27;20035;-76
2023/06/09 06:34:34;;;;;;;10.10;5.10;;;;;;;23.29;100.00;100928.78;5155260;27;20361;-76
2023/06/09 06:37:22;;;;;;;9.48;4.70;;;;;;;23.69;100.00;100921.59;5155131;27;20027;-75
2023/06/09 06:40:08;;;;;;;10.05;5.15;;;;;;;23.80;100.00;100927.09;5154200;27;20050;-76
2023/06/09 06:42:54;;;;;;;11.75;4.78;;;;;;;23.84;100.00;100915.22;5155299;27;20022;-76
2023/06/09 06:45:40;;;;;;;11.82;5.47;;;;;;;23.89;100.00;100918.41;5155396;27;20393;-76
2023/06/09 06:48:27;;;;;;;9.80;4.68;;;;;;;24.10;100.00;100927.69;5139822;27;20027;-76
2023/06/09 06:51:13;;;;;;;7.90;4.32;;;;;;;23.93;100.00;100922.63;5154634;27;20464;-76
2023/06/09 06:53:58;;;;;;;8.35;4.70;;;;;;;24.02;100.00;100927.38;5153358;27;20023;-77
2023/06/09 06:56:47;;;;;;;9.20;4.05;;;;;;;24.16;100.00;100922.75;5154670;27;20470;-76
2023/06/09 06:59:33;;;;;;;10.40;4.47;;;;;;;24.00;100.00;100924.78;5153861;27;20042;-76
2023/06/09 07:02:18;;;;;;;11.88;4.38;;;;;;;24.25;100.00;100921.25;5154805;27;20118;-76
2023/06/09 07:05:06;;;;;;;7.88;4.32;;;;;;;24.59;100.00;100910.69;5154621;27;20216;-77
2023/06/09 07:07:52;;;;;;;8.90;4.25;;;;;;;24.65;100.00;100914.78;5154907;27;20041;-76
2023/06/09 07:10:38;;;;;;;7.15;4.43;;;;;;;25.30;98.27;100911.69;5154284;27;20035;-76
2023/06/09 07:13:23;;;;;;;7.97;4.25;;;;;;;25.19;98.57;100913.44;5154793;27;20031;-75
2023/06/09 07:16:09;;;;;;;11.30;4.20;;;;;;;25.14;97.72;100910.22;5154036;27;20022;-76
2023/06/09 07:18:55;;;;;;;7.30;4.03;;;;;;;25.29;96.14;100914.47;5153856;27;20092;-76
2023/06/09 07:21:40;;;;;;;7.72;4.00;;;;;;;25.36;96.79;100911.19;5155407;27;20022;-76
2023/06/09 07:24:26;;;;;;;9.27;4.13;;;;;;;25.61;94.69;100913.75;5155336;27;20030;-77
2023/06/09 07:27:12;;;;;;;8.80;4.10;;;;;;;25.72;95.05;100912.94;5155182;27;20033;-76
2023/06/09 07:29:58;;;;;;;8.10;4.25;;;;;;;26.22;92.64;100901.81;5154381;27;20052;-77
2023/06/09 07:32:44;;;;;;;5.63;3.70;;;;;;;25.92;93.09;100905.03;5154262;27;20168;-76
2023/06/09 07:35:29;;;;;;;7.97;4.05;;;;;;;26.24;91.36;100899.88;5154517;27;20019;-76
2023/06/09 07:38:16;;;;;;;10.15;3.55;;;;;;;26.64;82.77;100904.63;5155161;27;20023;-77
2023/06/09 07:41:02;;;;;;;6.18;3.45;;;;;;;27.24;76.92;100898.75;5154232;27;20101;-76
2023/06/09 07:43:48;;;;;;;6.82;3.70;;;;;;;27.34;82.79;100899.72;5154955;27;20035;-76
2023/06/09 07:46:34;;;;;;;5.10;3.30;;;;;;;26.66;84.56;100901.81;5155608;27;20368;-76
2023/06/09 07:49:20;;;;;;;6.65;3.40;;;;;;;26.79;80.93;100898.03;5141640;27;20031;-77
2023/06/09 07:52:07;;;;;;;3.88;2.80;;;;;;;26.72;71.97;100896.81;5172115;27;20041;-75
2023/06/09 07:54:52;;;;;;;4.85;3.00;;;;;;;27.08;71.06;100892.91;5155446;27;20034;-76
2023/06/09 07:57:38;;;;;;;4.05;2.83;;;;;;;26.50;73.35;100894.13;5154788;27;20023;-77
2023/06/09 08:00:24;;;;;;;9.43;3.20;;;;;;;27.26;66.40;100884.22;5155110;27;20127;-77
2023/06/09 08:03:10;;;;;;;5.47;2.47;;;;;;;26.83;65.95;100895.94;5154969;27;20103;-76
2023/06/09 08:05:56;;;;;;;5.55;2.70;;;;;;;27.00;66.28;100890.00;5155007;27;20030;-76
2023/06/09 08:08:42;;;;;;;5.43;2.90;;;;;;;27.87;63.43;100893.34;5154427;27;20030;-76
2023/06/09 08:11:27;;;;;;;4.75;2.70;;;;;;;28.24;61.55;100899.94;5155094;27;20027;-76
2023/06/09 08:14:13;;;;;;;5.13;2.70;;;;;;;27.83;57.57;100901.81;5155699;27;20423;-76
2023/06/09 08:16:59;;;;;;;3.53;2.78;;;;;;;27.36;58.21;100905.81;5159148;27;20341;-76
2023/06/09 08:19:45;;;;;;;5.05;3.08;;;;;;;28.04;56.78;100900.81;5165529;27;20082;-77
2023/06/09 08:22:31;;;;;;;9.10;3.10;;;;;;;28.33;52.77;100896.41;5167960;27;20095;-78
2023/06/09 08:25:17;;;;;;;5.30;2.85;;;;;;;28.58;54.86;100893.31;5162342;27;20044;-77
2023/06/09 08:28:03;;;;;;;7.15;3.17;;;;;;;28.29;58.66;100900.38;5153011;27;20026;-77
2023/06/09 08:30:49;;;;;;;5.40;2.97;;;;;;;28.26;59.34;100894.41;5157654;27;20069;-77
2023/06/09 08:33:35;;;;;;;7.22;3.00;;;;;;;28.15;60.19;100887.28;5142323;27;20019;-76
2023/06/09 08:36:22;;;;;;;7.20;3.08;;;;;;;28.81;57.61;100881.28;5158841;27;20068;-77
2023/06/09 08:39:09;;;;;;;6.93;3.08;;;;;;;29.59;53.45;100892.94;5157283;27;20364;-76
2023/06/09 08:41:58;;;;;;;3.67;3.00;;;;;;;28.24;58.05;100891.84;5158384;27;20063;-76
2023/06/09 08:44:48;;;;;;;6.18;3.20;;;;;;;29.04;55.93;100888.19;5157393;27;20455;-76
2023/06/09 08:47:39;;;;;;;4.68;3.03;;;;;;;29.80;54.83;100881.94;5159608;27;20027;-75
2023/06/09 08:50:28;;;;;;;7.80;3.42;;;;;;;29.75;53.76;100876.97;5159427;27;20050;-76
2023/06/09 08:53:15;;;;;;;8.70;2.78;;;;;;;30.26;47.17;100874.72;5160741;27;20034;-75
2023/06/09 08:56:01;;;;;;;7.72;3.20;;;;;;;28.91;51.41;100881.31;5160568;27;20413;-76
2023/06/09 08:58:49;;;;;;;8.25;4.50;;;;;;;29.77;49.94;100887.66;5144667;27;20034;-76
2023/06/09 09:01:36;;;;;;;3.83;2.65;;;;;;;29.48;49.67;100882.25;5159961;27;20394;-77
2023/06/09 09:04:21;;;;;;;9.68;3.55;;;;;;;29.34;51.77;100882.69;5159625;27;20470;-75
2023/06/09 09:07:08;;;;;;;5.88;3.80;;;;;;;29.30;50.17;100883.09;5160141;27;20027;-75
2023/06/09 09:09:54;;;;;;;6.93;3.25;;;;;;;29.62;49.23;100879.13;5159271;27;20026;-76
2023/06/09 09:12:55;;;;;;;5.13;3.63;;;;;;;30.06;48.19;100877.63;5157228;27;20031;-77
2023/06/09 09:15:51;;;;;;;5.18;2.80;;;;;;;29.66;44.82;100877.81;5157655;27;20026;-76
2023/06/09 09:18:36;;;;;;;4.22;2.83;;;;;;;30.20;43.39;100869.06;5158835;27;20022;-76
2023/06/09 09:21:23;;;;;;;9.50;3.15;;;;;;;30.61;44.33;100873.97;5142309;27;20023;-76
2023/06/09 09:24:12;;;;;;;4.57;2.65;;;;;;;30.22;43.12;100870.59;5157531;27;20022;-76
2023/06/09 09:26:57;;;;;;;10.27;4.03;;;;;;;30.37;44.81;100866.41;5156384;27;20113;-76
2023/06/09 09:29:44;;;;;;;27.70;3.85;;;;;;;29.87;46.60;100859.63;5155882;27;20444;-76
2023/06/09 09:32:30;;;;;;;9.05;3.15;;;;;;;29.40;47.04;100863.19;5156741;27;20034;-76
2023/06/09 09:35:16;;;;;;;4.30;2.60;;;;;;;29.36;45.73;100850.97;5156292;27;20472;-76
2023/06/09 09:38:01;;;;;;;6.47;2.85;;;;;;;29.36;45.64;100858.22;5156402;27;20037;-76
2023/06/09 09:40:50;;;;;;;5.22;2.78;;;;;;;28.72;47.14;100855.16;5140895;27;20050;-76
2023/06/09 09:43:36;;;;;;;4.82;2.90;;;;;;;28.87;47.84;100853.78;5156894;27;20110;-74
2023/06/09 09:46:22;;;;;;;9.88;3.13;;;;;;;29.12;48.37;100863.19;5156809;27;20456;-73
2023/06/09 09:49:21;;;;;;;7.50;2.88;;;;;;;29.62;49.07;100857.50;5155786;27;20030;-73
2023/06/09 09:52:08;;;;;;;4.38;2.95;;;;;;;29.49;47.89;100862.31;5141937;27;20027;-74
2023/06/09 09:54:55;;;;;;;7.85;3.05;;;;;;;29.62;46.77;100853.97;5141873;27;20109;-73
2023/06/09 09:57:42;;;;;;;4.53;2.83;;;;;;;29.20;47.15;100841.72;5141662;27;20022;-73
2023/06/09 10:00:35;;;;;;;6.18;2.92;;;;;;;29.08;49.31;100850.97;5141231;27;20029;-73
2023/06/09 10:03:22;;;;;;;5.53;3.20;;;;;;;29.50;48.49;100844.28;5141630;27;20107;-74
2023/06/09 10:06:11;;;;;;;11.68;2.90;;;;;;;29.35;49.31;100843.03;5156595;27;20105;-74
2023/06/09 10:08:58;;;;;;;4.65;3.30;;;;;;;29.29;50.89;100841.75;5155819;27;20058;-73
2023/06/09 10:11:44;;;;;;;4.47;3.30;;;;;;;29.05;49.48;100843.19;5156382;27;20041;-73
2023/06/09 10:14:29;;;;;;;3.50;3.00;;;;;;;29.43;47.40;100838.63;5140511;27;20467;-73
2023/06/09 10:17:20;;;;;;;4.70;2.65;;;;;;;29.38;48.71;100840.03;5155551;27;20023;-72
2023/06/09 10:20:08;;;;;;;4.90;3.20;;;;;;;29.14;47.89;100840.47;5140817;27;20341;-73
2023/06/09 10:22:55;;;;;;;3.53;3.10;;;;;;;28.81;48.47;100845.38;5140379;27;20471;-73
2023/06/09 10:25:41;;;;;;;5.90;3.28;;;;;;;28.85;48.31;100830.63;5157143;27;20083;-72
2023/06/09 10:28:27;;;;;;;4.43;2.80;;;;;;;29.04;48.51;100828.81;5156460;27;20091;-73
2023/06/09 10:31:16;;;;;;;6.95;3.22;;;;;;;28.90;50.42;100833.75;5156776;27;20027;-72
2023/06/09 10:34:03;;;;;;;5.57;3.45;;;;;;;28.90;51.35;100826.53;5141178;27;20041;-75
2023/06/09 10:36:53;;;;;;;4.15;2.95;;;;;;;29.12;50.85;100818.16;5141130;27;20022;-75
2023/06/09 10:39:57;;;;;;;6.05;3.10;;;;;;;28.99;48.58;100817.56;5140280;27;20033;-76
2023/06/09 10:42:49;;;;;;;4.63;2.85;;;;;;;28.88;49.81;100806.03;5142468;27;20079;-76
2023/06/09 10:45:51;;;;;;;5.88;3.22;;;;;;;28.59;51.40;100818.63;5156545;27;20023;-75
2023/06/09 10:48:48;;;;;;;5.80;3.20;;;;;;;28.94;49.87;100811.75;5155940;27;20110;-77
2023/06/09 10:51:34;;;;;;;5.13;3.25;;;;;;;29.33;49.63;100808.06;5155481;27;20484;-76
2023/06/09 10:54:25;;;;;;;6.35;2.75;;;;;;;29.08;48.69;100807.78;5140647;27;20023;-75
2023/06/09 10:57:37;;;;;;;3.90;3.00;;;;;;;29.01;49.74;100803.97;5156471;27;20313;-74
2023/06/09 11:00:25;;;;;;;4.63;3.13;;;;;;;29.63;48.32;100798.94;5147202;27;20086;-71
2023/06/09 11:03:11;;;;;;;5.45;2.97;;;;;;;29.49;47.11;100792.13;5152184;27;20333;-72
2023/06/09 11:06:04;;;;;;;4.55;3.00;;;;;;;29.88;47.36;100795.59;5155119;27;20030;-71
2023/06/09 11:09:08;;;;;;;5.55;3.00;;;;;;;29.77;45.07;100801.19;5154957;27;20033;-72
2023/06/09 11:11:54;;;;;;;5.35;3.13;;;;;;;29.55;45.50;100788.84;5154125;27;20027;-72
2023/06/09 11:14:46;;;;;;;7.53;3.28;;;;;;;29.67;45.04;100792.25;5154796;27;20037;-71
2023/06/09 11:17:51;;;;;;;4.63;2.92;;;;;;;29.74;43.04;100779.88;5154527;27;20062;-77
2023/06/09 11:20:37;;;;;;;4.80;3.20;;;;;;;29.74;41.19;100780.72;5140531;27;20145;-71
2023/06/09 11:23:23;;;;;;;7.03;3.30;;;;;;;30.03;40.35;100781.47;5140266;27;20061;-70
2023/06/09 11:26:23;;;;;;;3.47;2.78;;;;;;;29.80;36.11;100777.44;5153513;27;20023;-71
2023/06/09 11:29:19;;;;;;;6.32;3.20;;;;;;;29.83;37.86;100774.44;5153730;27;20059;-71
2023/06/09 11:32:06;;;;;;;5.43;3.20;;;;;;;29.85;37.92;100771.59;5153345;27;20114;-72
2023/06/09 11:34:55;;;;;;;5.60;3.58;;;;;;;30.13;38.00;100760.63;5154265;27;20105;-71
2023/06/09 11:37:41;;;;;;;3.78;3.10;;;;;;;30.22;38.62;100761.63;5154686;27;20064;-72
2023/06/09 11:40:28;;;;;;;5.00;3.00;;;;;;;30.04;37.27;100758.84;5153945;27;20370;-71
2023/06/09 11:43:14;;;;;;;5.18;3.10;;;;;;;30.85;37.44;100768.75;5154541;27;20026;-75
2023/06/09 11:46:02;;;;;;;11.85;4.22;;;;;;;30.86;38.07;100767.78;5138573;27;20023;-75
2023/06/09 11:49:06;;;;;;;6.63;3.47;;;;;;;30.02;37.94;100758.13;5138899;27;20448;-75
2023/06/09 11:51:57;;;;;;;4.63;3.20;;;;;;;30.25;37.93;100762.16;5141121;27;20463;-75
2023/06/09 11:54:45;;;;;;;4.25;3.00;;;;;;;30.26;38.46;100761.16;5158764;27;20033;-75
2023/06/09 11:57:32;;;;;;;3.88;3.13;;;;;;;30.72;37.76;100755.63;5159434;27;20026;-75
2023/06/09 12:00:18;;;;;;;3.72;3.00;;;;;;;30.22;38.43;100751.66;5159899;27;20064;-75
2023/06/09 12:03:05;;;;;;;6.03;2.88;;;;;;;30.38;38.16;100748.31;5158070;27;20030;-75
2023/06/09 12:05:51;;;;;;;6.18;3.03;;;;;;;30.31;38.09;100745.34;5159268;27;20040;-75
2023/06/09 12:08:37;;;;;;;6.13;3.00;;;;;;;30.70;38.24;100740.56;5158712;27;20106;-75
2023/06/09 12:11:23;;;;;;;6.10;3.20;;;;;;;30.68;35.16;100746.09;5143673;27;20023;-75
2023/06/09 12:14:08;;;;;;;10.30;3.47;;;;;;;30.56;33.01;100739.19;5162466;27;20023;-75
2023/06/09 12:16:54;;;;;;;7.22;3.22;;;;;;;30.80;31.02;100738.59;5160999;27;20038;-75
2023/06/09 12:19:41;;;;;;;4.53;3.15;;;;;;;30.78;30.27;100735.22;5158117;27;20093;-77
2023/06/09 12:22:37;;;;;;;8.27;3.33;;;;;;;30.72;30.75;100725.88;5159955;27;20033;-75
2023/06/09 12:25:31;;;;;;;4.32;3.00;;;;;;;30.48;30.08;100731.00;5161079;27;20045;-74
2023/06/09 12:28:24;;;;;;;4.85;3.30;;;;;;;30.88;29.68;100733.28;5159005;27;20393;-74
2023/06/09 12:31:11;;;;;;;5.78;2.97;;;;;;;31.03;31.24;100735.25;5157478;27;20468;-75
2023/06/09 12:33:58;;;;;;;4.40;3.10;;;;;;;30.40;33.68;100725.50;5142889;27;20416;-77
2023/06/09 12:36:46;;;;;;;5.72;3.45;;;;;;;30.51;33.59;100728.00;5159142;27;20030;-74
2023/06/09 12:39:35;;;;;;;6.07;3.10;;;;;;;30.57;32.56;100723.81;5143044;27;20023;-74
2023/06/09 12:42:20;;;;;;;3.20;2.90;;;;;;;30.11;32.64;100713.13;5158493;27;20026;-74
2023/06/09 12:45:06;;;;;;;3.25;2.70;;;;;;;30.73;32.71;100714.03;5158771;27;20022;-74
2023/06/09 12:47:52;;;;;;;5.50;3.13;;;;;;;31.00;32.23;100715.78;5159529;27;20455;-73
2023/06/09 12:50:39;;;;;;;5.20;3.17;;;;;;;31.03;31.91;100713.59;5158745;27;20038;-74
2023/06/09 12:53:25;;;;;;;4.70;2.90;;;;;;;30.77;32.45;100707.31;5157758;27;20060;-74